createdAt,value
2023-03-15T00:00:31.095Z,18.34
2023-03-15T00:05:32.940Z,18.35
2023-03-15T00:10:34.807Z,18.35
2023-03-15T00:15:37.996Z,18.36
2023-03-15T00:20:39.974Z,18.36
2023-03-15T00:25:45.561Z,18.32
2023-03-15T00:30:47.682Z,18.33
2023-03-15T00:35:49.555Z,18.35
2023-03-15T00:40:51.367Z,18.36
2023-03-15T00:45:53.651Z,18.33
2023-03-15T00:51:06.476Z,18.32
2023-03-15T00:56:14.374Z,18.33
2023-03-15T01:01:19.057Z,18.35
2023-03-15T01:06:23.856Z,18.32
2023-03-15T01:11:28.424Z,18.31
2023-03-15T01:16:30.542Z,18.29
2023-03-15T01:21:32.583Z,18.32
2023-03-15T01:26:34.554Z,18.30
2023-03-15T01:31:36.505Z,18.29
2023-03-15T01:36:38.292Z,18.30
2023-03-15T01:41:40.173Z,18.31
2023-03-15T01:46:42.394Z,18.35
2023-03-15T01:51:58.770Z,18.31
2023-03-15T01:57:03.273Z,18.28
2023-03-15T02:02:06.654Z,18.29
2023-03-15T02:07:10.030Z,18.28
2023-03-15T02:12:12.361Z,18.31
2023-03-15T02:17:14.400Z,18.31
2023-03-15T02:22:28.349Z,18.32
2023-03-15T02:27:34.702Z,18.29
2023-03-15T02:32:36.793Z,18.28
2023-03-15T02:37:38.971Z,18.27
2023-03-15T02:42:42.718Z,18.28
2023-03-15T02:47:46.221Z,18.26
2023-03-15T02:52:48.165Z,18.29
2023-03-15T02:57:50.379Z,18.28
2023-03-15T03:02:52.774Z,18.26
2023-03-15T03:07:55.294Z,18.24
2023-03-15T03:12:57.140Z,18.28
2023-03-15T03:17:58.997Z,18.29
2023-03-15T03:23:06.104Z,18.28
2023-03-15T03:28:08.196Z,18.27
2023-03-15T03:33:10.124Z,18.25
2023-03-15T03:38:13.337Z,18.26
2023-03-15T03:43:15.429Z,18.25
2023-03-15T03:48:17.302Z,18.24
2023-03-15T03:53:19.303Z,18.19
2023-03-15T03:58:21.885Z,18.25
2023-03-15T04:03:27.487Z,18.25
2023-03-15T04:08:29.619Z,18.23
2023-03-15T04:13:31.910Z,18.26
2023-03-15T04:18:33.730Z,18.22
2023-03-15T04:23:35.744Z,18.23
2023-03-15T04:28:38.258Z,18.24
2023-03-15T04:33:40.606Z,18.20
2023-03-15T04:38:42.534Z,18.22
2023-03-15T04:43:45.052Z,18.22
2023-03-15T04:48:47.086Z,18.20
2023-03-15T04:53:48.963Z,18.21
2023-03-15T04:58:50.711Z,18.20
2023-03-15T05:03:53.939Z,18.18
2023-03-15T05:08:56.275Z,18.20
2023-03-15T05:13:58.359Z,18.21
2023-03-15T05:19:00.533Z,18.21
2023-03-15T05:24:02.630Z,18.21
2023-03-15T05:29:04.564Z,18.20
2023-03-15T05:34:07.746Z,18.20
2023-03-15T05:39:09.717Z,18.19
2023-03-15T05:44:11.625Z,18.20
2023-03-15T05:49:13.507Z,18.17
2023-03-15T05:54:15.469Z,18.17
2023-03-15T05:59:17.342Z,18.18
2023-03-15T06:04:19.420Z,18.18
2023-03-15T06:09:21.531Z,18.18
2023-03-15T06:14:23.893Z,18.16
2023-03-15T06:19:26.136Z,18.18
2023-03-15T06:24:28.055Z,18.17
2023-03-15T06:29:30.218Z,18.17
2023-03-15T06:34:32.170Z,18.17
2023-03-15T06:39:34.752Z,18.18
2023-03-15T06:44:37.050Z,18.15
2023-03-15T06:49:39.143Z,18.13
2023-03-15T06:54:41.258Z,18.16
2023-03-15T06:59:43.290Z,18.19
2023-03-15T07:04:45.604Z,18.16
2023-03-15T07:09:47.852Z,18.12
2023-03-15T07:14:50.321Z,18.06
2023-03-15T07:19:56.683Z,18.06
2023-03-15T07:24:59.590Z,18.07
2023-03-15T07:30:01.454Z,18.05
2023-03-15T07:35:03.557Z,18.09
2023-03-15T07:40:10.068Z,18.10
2023-03-15T07:45:12.395Z,18.38
2023-03-15T07:50:16.824Z,18.32
2023-03-15T07:55:22.203Z,18.41
2023-03-15T08:00:24.508Z,18.45
2023-03-15T08:05:28.915Z,18.56
2023-03-15T08:10:31.118Z,18.55
2023-03-15T08:15:33.257Z,18.53
2023-03-15T08:20:35.169Z,18.55
2023-03-15T08:25:41.115Z,18.42
2023-03-15T08:30:43.055Z,18.49
2023-03-15T08:35:44.960Z,18.38
2023-03-15T08:40:47.328Z,18.42
2023-03-15T08:46:00.756Z,18.41
2023-03-15T08:51:05.607Z,18.33
2023-03-15T08:56:07.643Z,18.31
2023-03-15T09:01:12.299Z,18.27
2023-03-15T09:06:14.626Z,18.29
2023-03-15T09:11:16.495Z,18.20
2023-03-15T09:16:18.274Z,18.22
2023-03-15T09:21:20.021Z,18.22
2023-03-15T09:26:21.937Z,18.25
2023-03-15T09:31:25.211Z,18.24
2023-03-15T09:36:27.295Z,18.20
2023-03-15T09:41:43.508Z,18.22
2023-03-15T09:47:02.162Z,18.25
2023-03-15T09:52:15.950Z,18.28
2023-03-15T09:57:24.217Z,18.35
2023-03-15T10:02:29.918Z,18.38
2023-03-15T10:07:32.953Z,18.38
2023-03-15T10:12:41.696Z,18.36
2023-03-15T10:17:58.157Z,18.30
2023-03-15T10:23:13.678Z,18.29
2023-03-15T10:28:28.821Z,18.28
2023-03-15T10:33:36.414Z,18.27
2023-03-15T10:38:39.288Z,18.29
2023-03-15T10:43:41.977Z,18.26
2023-03-15T10:49:10.580Z,18.19
2023-03-15T10:54:21.274Z,18.19
2023-03-15T10:59:25.641Z,18.21
2023-03-15T11:04:28.036Z,18.18
2023-03-15T11:10:00.784Z,18.16
2023-03-15T11:15:08.147Z,18.16
2023-03-15T11:20:34.259Z,18.15
2023-03-15T11:25:36.288Z,18.15
2023-03-15T11:30:42.020Z,18.17
2023-03-15T11:35:49.993Z,18.15
2023-03-15T11:40:57.078Z,18.16
2023-03-15T11:46:02.288Z,18.14
2023-03-15T11:51:06.084Z,18.16
2023-03-15T11:56:40.201Z,18.13
2023-03-15T12:01:56.499Z,18.13
2023-03-15T12:07:00.620Z,18.14
2023-03-15T12:12:25.762Z,18.10
2023-03-15T12:17:27.786Z,18.13
2023-03-15T12:22:34.143Z,18.11
2023-03-15T12:27:37.759Z,18.14
2023-03-15T12:32:49.678Z,18.14
2023-03-15T12:37:53.627Z,18.16
2023-03-15T12:42:57.619Z,18.20
2023-03-15T12:47:59.565Z,18.17
2023-03-15T12:53:03.527Z,18.17
2023-03-15T12:58:05.605Z,18.17
2023-03-15T13:03:17.293Z,18.17
2023-03-15T13:08:25.974Z,18.14
2023-03-15T13:13:28.008Z,18.16
2023-03-15T13:18:34.732Z,18.17
2023-03-15T13:23:37.812Z,18.16
2023-03-15T13:28:46.839Z,18.16
2023-03-15T13:33:50.366Z,18.20
2023-03-15T13:38:54.696Z,18.16
2023-03-15T13:44:00.618Z,18.17
2023-03-15T13:49:02.469Z,18.18
2023-03-15T13:54:07.640Z,18.19
2023-03-15T13:59:10.157Z,18.18
2023-03-15T14:04:18.867Z,18.17
2023-03-15T14:09:28.810Z,18.20
2023-03-15T14:14:33.050Z,18.18
2023-03-15T14:19:37.139Z,18.15
2023-03-15T14:24:41.817Z,18.17
2023-03-15T14:29:56.809Z,18.17
2023-03-15T14:35:08.904Z,18.16
2023-03-15T14:40:20.414Z,18.17
2023-03-15T14:45:23.417Z,18.16
2023-03-15T14:50:29.006Z,18.18
2023-03-15T14:55:35.110Z,18.16
2023-03-15T15:00:37.233Z,18.20
2023-03-15T15:05:39.084Z,18.18
2023-03-15T15:10:42.751Z,18.16
2023-03-15T15:15:55.002Z,18.17
2023-03-15T15:21:01.530Z,18.14
2023-03-15T15:26:05.628Z,18.18
2023-03-15T15:31:07.644Z,17.98
2023-03-15T15:36:21.291Z,17.64
2023-03-15T15:41:26.296Z,18.17
2023-03-15T15:46:28.432Z,18.20
2023-03-15T15:51:38.995Z,18.19
2023-03-15T15:56:54.613Z,18.20
2023-03-15T16:02:01.145Z,18.21
2023-03-15T16:07:04.375Z,18.19
2023-03-15T16:12:18.129Z,18.17
2023-03-15T16:17:22.532Z,18.18
2023-03-15T16:22:26.895Z,18.16
2023-03-15T16:27:29.837Z,18.15
2023-03-15T16:32:43.471Z,18.14
2023-03-15T16:37:46.893Z,18.16
2023-03-15T16:42:49.816Z,18.14
2023-03-15T16:47:52.371Z,17.63
2023-03-15T16:52:57.618Z,17.74
2023-03-15T16:58:10.233Z,17.69
2023-03-15T17:03:12.779Z,17.69
2023-03-15T17:08:18.887Z,17.60
2023-03-15T17:13:30.078Z,17.56
2023-03-15T17:18:33.898Z,17.56
2023-03-15T17:23:36.744Z,17.76
2023-03-15T17:28:39.192Z,18.00
2023-03-15T17:33:42.009Z,18.11
2023-03-15T17:38:44.403Z,18.38
2023-03-15T17:43:46.760Z,18.32
2023-03-15T17:48:49.396Z,17.75
2023-03-15T17:53:52.126Z,17.78
2023-03-15T17:58:57.472Z,17.62
2023-03-15T18:04:02.491Z,17.75
2023-03-15T18:09:05.185Z,17.77
2023-03-15T18:14:07.879Z,17.85
2023-03-15T18:19:10.797Z,17.95
2023-03-15T18:24:13.850Z,17.97
2023-03-15T18:29:16.161Z,18.14
2023-03-15T18:34:22.341Z,18.23
2023-03-15T18:39:26.135Z,18.12
2023-03-15T18:44:28.198Z,17.87
2023-03-15T18:49:30.073Z,17.76
2023-03-15T18:54:31.908Z,17.65
2023-03-15T18:59:34.221Z,17.58
2023-03-15T19:04:36.298Z,17.78
2023-03-15T19:09:38.256Z,17.72
2023-03-15T19:14:40.194Z,17.84
2023-03-15T19:19:42.264Z,17.61
2023-03-15T19:24:44.545Z,17.53
2023-03-15T19:29:46.436Z,17.78
2023-03-15T19:34:48.525Z,17.61
2023-03-15T19:39:51.107Z,17.67
2023-03-15T19:44:53.276Z,17.97
2023-03-15T19:49:55.430Z,18.36
2023-03-15T19:54:57.396Z,18.44
2023-03-15T19:59:59.255Z,18.42
2023-03-15T20:05:01.284Z,18.43
2023-03-15T20:10:04.838Z,18.40
2023-03-15T20:15:09.512Z,18.39
2023-03-15T20:20:13.995Z,18.42
2023-03-15T20:25:18.693Z,18.39
2023-03-15T20:30:21.493Z,18.35
2023-03-15T20:35:23.843Z,18.35
2023-03-15T20:40:26.062Z,18.34
2023-03-15T20:45:28.143Z,18.36
2023-03-15T20:50:29.924Z,18.32
2023-03-15T20:55:34.710Z,18.31
2023-03-15T21:00:37.662Z,18.15
2023-03-15T21:05:45.532Z,17.86
2023-03-15T21:10:47.702Z,18.07
2023-03-15T21:15:53.622Z,18.21
2023-03-15T21:21:00.011Z,18.20
2023-03-15T21:26:05.428Z,18.20
2023-03-15T21:31:08.734Z,18.19
2023-03-15T21:36:11.074Z,18.20
2023-03-15T21:41:14.589Z,18.22
2023-03-15T21:46:16.993Z,18.21
2023-03-15T21:51:19.490Z,18.24
2023-03-15T21:56:26.324Z,18.23
2023-03-15T22:01:28.338Z,18.23
2023-03-15T22:06:30.281Z,18.22
2023-03-15T22:11:32.102Z,18.21
2023-03-15T22:16:33.997Z,18.21
2023-03-15T22:21:36.025Z,18.19
2023-03-15T22:26:38.111Z,18.21
2023-03-15T22:31:40.044Z,18.21
2023-03-15T22:36:43.331Z,18.18
2023-03-15T22:41:45.202Z,18.17
2023-03-15T22:46:47.211Z,18.20
2023-03-15T22:51:49.041Z,18.21
2023-03-15T22:56:51.604Z,18.17
2023-03-15T23:01:53.632Z,18.19
2023-03-15T23:06:55.807Z,18.18
2023-03-15T23:11:57.677Z,18.21
2023-03-15T23:16:59.495Z,18.18
2023-03-15T23:22:04.784Z,18.22
2023-03-15T23:27:07.254Z,18.17
2023-03-15T23:32:09.812Z,18.18
2023-03-15T23:37:11.832Z,18.17
2023-03-15T23:42:14.159Z,18.14
2023-03-15T23:47:16.271Z,18.17
2023-03-15T23:52:19.019Z,18.18
2023-03-15T23:57:21.540Z,18.17
